Time;durP1;ratioP1;P1;durP2;ratioP2;P2;SDS_P1;SDS_P2;PMS_P1;PMS_P2;Temp;Humidity;BMP_temperature;BMP_pressure;BME280_temperature;BME280_humidity;BME280_pressure;Samples;Min_cycle;Max_cycle;Signal;HPM_P1;HPM_P2
2022/08/03 00:01:39;;;;;;;2.70;1.17;;;;;;;18.22;100.00;101410.81;5076013;28;20105;-71
2022/08/03 00:04:06;;;;;;;2.03;0.82;;;;;;;18.32;100.00;101426.56;5081226;28;20028;-71
2022/08/03 00:06:32;;;;;;;3.05;1.27;;;;;;;18.30;100.00;101432.91;5077100;28;20023;-71
2022/08/03 00:08:57;;;;;;;1.13;0.70;;;;;;;18.35;100.00;101432.34;5072524;28;20033;-71
2022/08/03 00:11:23;;;;;;;1.85;1.00;;;;;;;18.36;100.00;101428.69;5074329;28;20056;-71
2022/08/03 00:13:49;;;;;;;1.05;0.90;;;;;;;18.28;100.00;101415.41;5071692;28;20377;-71
2022/08/03 00:16:15;;;;;;;5.28;0.80;;;;;;;18.31;100.00;101415.03;5080695;28;20024;-71
2022/08/03 00:18:40;;;;;;;4.13;1.15;;;;;;;18.25;100.00;101421.16;5074719;28;20024;-71
2022/08/03 00:21:06;;;;;;;1.00;0.65;;;;;;;18.21;100.00;101412.66;5074995;28;20079;-71
2022/08/03 00:23:32;;;;;;;6.82;1.25;;;;;;;18.17;100.00;101415.91;5079453;28;20116;-71
2022/08/03 00:25:57;;;;;;;6.03;1.67;;;;;;;18.08;100.00;101409.81;5078035;28;20032;-71
2022/08/03 00:28:23;;;;;;;2.35;1.60;;;;;;;18.14;100.00;101418.91;5056447;28;20048;-71
2022/08/03 00:30:48;;;;;;;4.88;2.13;;;;;;;18.09;100.00;101419.47;5071837;28;20028;-71
2022/08/03 00:33:14;;;;;;;1.38;1.00;;;;;;;18.05;100.00;101416.38;5077679;28;20020;-71
2022/08/03 00:35:40;;;;;;;2.17;1.73;;;;;;;18.03;100.00;101410.38;5076820;28;20131;-71
2022/08/03 00:38:06;;;;;;;5.70;1.50;;;;;;;17.99;100.00;101406.44;5076452;28;20102;-72
2022/08/03 00:40:31;;;;;;;1.30;0.95;;;;;;;18.04;100.00;101411.22;5074694;28;20032;-71
2022/08/03 00:42:59;;;;;;;1.77;0.70;;;;;;;18.03;100.00;101405.03;5074234;28;20028;-71
2022/08/03 00:45:28;;;;;;;2.70;1.35;;;;;;;18.06;100.00;101406.50;5071016;28;20024;-71
2022/08/03 00:47:54;;;;;;;1.98;1.15;;;;;;;18.08;100.00;101410.66;5075919;28;20028;-71
2022/08/03 00:50:21;;;;;;;1.83;0.85;;;;;;;18.04;100.00;101414.69;5081093;28;20028;-71
2022/08/03 00:52:48;;;;;;;1.30;1.10;;;;;;;18.07;100.00;101406.34;5076687;28;20043;-71
2022/08/03 00:55:14;;;;;;;2.05;0.90;;;;;;;18.09;100.00;101416.81;5084565;28;20081;-71
2022/08/03 00:57:41;;;;;;;7.30;1.05;;;;;;;18.08;100.00;101416.00;5075500;28;20021;-71
2022/08/03 01:00:09;;;;;;;1.40;0.95;;;;;;;18.06;100.00;101407.34;5076895;28;20024;-71
2022/08/03 01:02:35;;;;;;;2.15;1.52;;;;;;;18.11;100.00;101406.78;5075344;28;20507;-71
2022/08/03 01:05:00;;;;;;;2.55;0.88;;;;;;;18.11;100.00;101416.63;5079453;28;20114;-71
2022/08/03 01:07:37;;;;;;;2.00;1.52;;;;;;;18.11;100.00;101419.31;5078220;28;20298;-71
2022/08/03 01:10:13;;;;;;;2.97;1.20;;;;;;;18.06;100.00;101409.19;5078103;28;20052;-71
2022/08/03 01:12:46;;;;;;;1.27;0.93;;;;;;;17.96;100.00;101401.44;5074006;28;20545;-71
2022/08/03 01:15:18;;;;;;;4.50;1.25;;;;;;;17.89;100.00;101400.53;5069904;28;20021;-71
2022/08/03 01:18:08;;;;;;;0.50;0.40;;;;;;;17.86;100.00;101403.59;5072204;28;20030;-71
2022/08/03 01:20:37;;;;;;;3.92;1.15;;;;;;;17.83;100.00;101403.94;5074193;28;20114;-71
2022/08/03 01:23:19;;;;;;;1.33;1.20;;;;;;;17.84;100.00;101393.06;5082595;28;20440;-71
2022/08/03 01:25:58;;;;;;;1.85;0.88;;;;;;;17.85;100.00;101399.22;5076879;28;20089;-72
2022/08/03 01:28:45;;;;;;;1.48;1.05;;;;;;;17.81;100.00;101397.91;5077596;28;20093;-71
2022/08/03 01:31:15;;;;;;;4.90;2.05;;;;;;;17.72;100.00;101393.69;5064947;28;20017;-72
2022/08/03 01:33:45;;;;;;;4.90;2.08;;;;;;;17.60;100.00;101385.31;5079852;28;20118;-71
2022/08/03 01:36:20;;;;;;;9.63;1.58;;;;;;;17.51;100.00;101387.25;5076636;28;20025;-71
2022/08/03 01:38:50;;;;;;;2.25;1.05;;;;;;;17.49;100.00;101389.25;5076432;28;20532;-71
2022/08/03 01:41:20;;;;;;;6.28;1.10;;;;;;;17.41;100.00;101370.66;5070337;28;20091;-71
2022/08/03 01:43:48;;;;;;;1.83;1.27;;;;;;;17.39;100.00;101378.84;5078190;28;20102;-71
2022/08/03 01:46:16;;;;;;;5.05;1.40;;;;;;;17.45;100.00;101378.09;5078837;28;20103;-71
2022/08/03 01:48:43;;;;;;;4.28;1.08;;;;;;;17.40;100.00;101363.69;5079389;28;20028;-71
2022/08/03 01:51:09;;;;;;;2.17;1.38;;;;;;;17.43;100.00;101368.63;5070398;28;20020;-71
2022/08/03 01:53:37;;;;;;;1.10;0.80;;;;;;;17.45;100.00;101371.94;5076112;28;20027;-71
2022/08/03 01:56:04;;;;;;;8.00;1.35;;;;;;;17.48;100.00;101377.75;5077029;28;20033;-71
2022/08/03 01:58:31;;;;;;;3.97;1.27;;;;;;;17.52;100.00;101369.38;5073860;28;20020;-71
2022/08/03 02:00:59;;;;;;;2.83;1.27;;;;;;;17.52;100.00;101372.06;5077239;28;20035;-71
2022/08/03 02:03:27;;;;;;;2.38;1.13;;;;;;;17.51;100.00;101360.56;5075242;28;20039;-71
2022/08/03 02:05:55;;;;;;;10.55;1.58;;;;;;;17.48;100.00;101356.41;5074315;28;20054;-71
2022/08/03 02:08:23;;;;;;;1.60;1.02;;;;;;;17.49;100.00;101365.25;5069907;28;20020;-71
2022/08/03 02:10:50;;;;;;;4.47;0.80;;;;;;;17.48;100.00;101353.75;5079370;28;20118;-71
2022/08/03 02:13:18;;;;;;;6.95;1.52;;;;;;;17.47;100.00;101359.25;5074553;28;20449;-71
2022/08/03 02:15:45;;;;;;;1.52;0.68;;;;;;;17.47;100.00;101359.25;5077115;28;20027;-71
2022/08/03 02:18:12;;;;;;;1.75;1.25;;;;;;;17.42;100.00;101362.47;5074795;28;20086;-71
2022/08/03 02:20:39;;;;;;;1.00;0.85;;;;;;;17.43;100.00;101358.78;5082462;28;20050;-71
2022/08/03 02:23:06;;;;;;;6.97;1.30;;;;;;;17.40;100.00;101356.50;5075389;28;20485;-71
2022/08/03 02:25:33;;;;;;;2.10;1.17;;;;;;;17.41;100.00;101359.97;5078892;28;20025;-71
2022/08/03 02:28:10;;;;;;;3.75;1.92;;;;;;;17.28;100.00;101345.41;5080559;28;20044;-71
2022/08/03 02:30:38;;;;;;;3.83;1.02;;;;;;;17.33;100.00;101357.38;5074582;28;20405;-71
2022/08/03 02:33:06;;;;;;;1.73;1.35;;;;;;;17.25;100.00;101351.13;5073854;28;20032;-71
2022/08/03 02:35:32;;;;;;;2.00;1.05;;;;;;;17.09;100.00;101331.78;5080000;28;20020;-71
2022/08/03 02:38:03;;;;;;;1.23;0.77;;;;;;;17.09;100.00;101348.59;5084635;28;20107;-71
2022/08/03 02:40:30;;;;;;;3.22;1.00;;;;;;;16.97;100.00;101347.41;5081309;28;20032;-71
2022/08/03 02:42:59;;;;;;;2.35;1.23;;;;;;;16.94;100.00;101345.06;5082353;28;20115;-71
2022/08/03 02:45:27;;;;;;;3.65;1.08;;;;;;;16.97;100.00;101350.06;5079185;28;20028;-71
2022/08/03 02:47:57;;;;;;;2.60;0.82;;;;;;;16.96;100.00;101335.06;5079805;28;20527;-71
2022/08/03 02:50:24;;;;;;;2.03;1.02;;;;;;;16.86;100.00;101327.31;5084275;28;20042;-71
2022/08/03 02:52:52;;;;;;;3.10;1.27;;;;;;;17.00;100.00;101347.84;5070560;28;20028;-71
2022/08/03 02:55:20;;;;;;;3.05;1.02;;;;;;;17.06;100.00;101352.47;5069274;28;20016;-71
2022/08/03 02:57:47;;;;;;;2.13;1.02;;;;;;;17.06;100.00;101340.97;5078056;28;20281;-71
2022/08/03 03:00:13;;;;;;;1.02;0.73;;;;;;;17.14;100.00;101342.75;5076942;28;20400;-71
2022/08/03 03:02:40;;;;;;;2.70;0.80;;;;;;;17.15;100.00;101349.72;5070321;28;20036;-71
2022/08/03 03:05:07;;;;;;;0.98;0.80;;;;;;;17.04;100.00;101327.00;5084092;28;20038;-71
2022/08/03 03:07:34;;;;;;;1.70;1.20;;;;;;;17.17;100.00;101337.88;5079906;28;20123;-71
2022/08/03 03:10:01;;;;;;;2.22;0.82;;;;;;;17.09;100.00;101326.44;5071884;28;20020;-71
2022/08/03 03:12:28;;;;;;;1.75;1.08;;;;;;;17.15;100.00;101344.41;5082505;28;20377;-71
2022/08/03 03:14:54;;;;;;;3.25;0.88;;;;;;;17.13;100.00;101336.56;5081022;28;20508;-71
2022/08/03 03:17:20;;;;;;;1.70;0.52;;;;;;;17.11;100.00;101343.91;5083730;28;20031;-71
2022/08/03 03:19:48;;;;;;;1.25;0.80;;;;;;;17.11;100.00;101343.09;5076982;28;20098;-71
2022/08/03 03:22:15;;;;;;;5.15;0.90;;;;;;;17.08;100.00;101346.13;5082262;28;20024;-71
2022/08/03 03:24:41;;;;;;;1.75;0.85;;;;;;;17.03;100.00;101336.03;5074573;28;20462;-71
2022/08/03 03:27:08;;;;;;;2.17;0.63;;;;;;;17.04;100.00;101338.47;5071403;28;20154;-71
2022/08/03 03:29:34;;;;;;;2.60;1.02;;;;;;;17.05;100.00;101336.66;5074116;28;20119;-71
2022/08/03 03:32:00;;;;;;;3.15;1.75;;;;;;;16.93;100.00;101325.59;5080714;28;20054;-71
2022/08/03 03:34:28;;;;;;;1.98;0.95;;;;;;;16.99;100.00;101337.38;5075000;28;20132;-71
2022/08/03 03:36:53;;;;;;;2.97;1.08;;;;;;;17.03;100.00;101344.03;5076708;28;20031;-71
2022/08/03 03:39:19;;;;;;;2.38;0.90;;;;;;;17.00;100.00;101336.38;5082168;28;20379;-71
2022/08/03 03:41:44;;;;;;;4.82;0.93;;;;;;;16.96;100.00;101335.91;5076226;28;20029;-71
2022/08/03 03:44:10;;;;;;;1.10;0.70;;;;;;;16.83;100.00;101320.53;5075652;28;20111;-71
2022/08/03 03:46:37;;;;;;;1.67;0.95;;;;;;;16.88;100.00;101337.81;5062938;28;20454;-72
2022/08/03 03:49:05;;;;;;;5.28;0.75;;;;;;;16.91;100.00;101340.94;5078681;28;20511;-71
2022/08/03 03:51:30;;;;;;;5.22;0.60;;;;;;;16.89;100.00;101334.13;5085040;28;20426;-70
2022/08/03 03:53:57;;;;;;;1.20;0.57;;;;;;;16.85;100.00;101331.84;5076331;28;20035;-71
2022/08/03 03:56:22;;;;;;;3.45;1.25;;;;;;;16.84;100.00;101334.69;5079134;28;20031;-71
2022/08/03 03:58:48;;;;;;;4.03;1.02;;;;;;;16.78;100.00;101332.69;5083863;28;20034;-71
2022/08/03 04:01:14;;;;;;;3.75;0.68;;;;;;;16.80;100.00;101333.38;5072857;28;20524;-71
2022/08/03 04:03:39;;;;;;;1.67;0.85;;;;;;;16.90;100.00;101343.78;5067590;28;20388;-71
2022/08/03 04:10:57;;;;;;;1.67;0.70;;;;;;;16.88;100.00;101343.16;5075808;28;20043;-71
2022/08/03 04:11:46;;;;;;;1.88;1.60;;;;;;;16.91;100.00;101348.13;5069940;28;20131;-71
2022/08/03 04:14:22;;;;;;;4.10;1.88;;;;;;;16.86;100.00;101341.47;5079364;28;20024;-71
2022/08/03 04:17:17;;;;;;;5.40;1.27;;;;;;;16.91;100.00;101350.78;5081627;28;20043;-71
2022/08/03 04:19:46;;;;;;;3.03;1.08;;;;;;;16.91;100.00;101348.13;5033748;28;20050;-71
2022/08/03 04:22:16;;;;;;;5.18;1.00;;;;;;;16.93;100.00;101346.91;5034339;28;20026;-71
2022/08/03 04:25:01;;;;;;;3.80;0.70;;;;;;;16.81;100.00;101319.03;5027732;28;20386;-71
2022/08/03 04:27:33;;;;;;;1.00;0.90;;;;;;;16.98;100.00;101349.03;5028456;28;20057;-71
2022/08/03 04:30:03;;;;;;;1.80;1.10;;;;;;;17.00;100.00;101352.34;5028472;28;20041;-72
2022/08/03 04:32:30;;;;;;;2.22;1.08;;;;;;;17.05;100.00;101352.66;5018557;28;20437;-72
2022/08/03 04:34:56;;;;;;;2.58;1.27;;;;;;;17.05;100.00;101352.66;5028062;28;20489;-70
2022/08/03 04:37:42;;;;;;;1.75;0.65;;;;;;;17.08;100.00;101360.28;5029252;28;20048;-72
2022/08/03 04:40:13;;;;;;;3.97;1.58;;;;;;;17.08;100.00;101357.63;5029594;28;20029;-70
2022/08/03 04:42:40;;;;;;;7.00;1.50;;;;;;;17.10;100.00;101363.63;5012662;28;20076;-70
2022/08/03 04:45:10;;;;;;;4.38;1.45;;;;;;;17.12;100.00;101363.44;5027401;28;20496;-72
2022/08/03 04:47:37;;;;;;;1.67;1.15;;;;;;;17.08;100.00;101360.28;5031097;28;20025;-71
2022/08/03 04:50:04;;;;;;;2.40;0.80;;;;;;;17.10;100.00;101358.28;5012129;28;20100;-70
2022/08/03 04:52:30;;;;;;;4.43;1.00;;;;;;;17.18;100.00;101365.38;5033999;28;20257;-70
2022/08/03 04:54:56;;;;;;;2.70;1.00;;;;;;;17.26;100.00;101374.13;5032157;28;20037;-71
2022/08/03 04:57:22;;;;;;;2.97;1.30;;;;;;;17.37;100.00;101375.50;5076849;28;20024;-72
2022/08/03 04:59:51;;;;;;;3.10;0.63;;;;;;;17.46;100.00;101376.25;5077089;28;20032;-70
2022/08/03 05:02:17;;;;;;;2.75;1.15;;;;;;;17.54;100.00;101373.53;5076525;28;20060;-70
2022/08/03 05:04:45;;;;;;;1.20;0.80;;;;;;;17.66;100.00;101373.91;5070363;28;20456;-71
2022/08/03 05:07:14;;;;;;;1.92;1.13;;;;;;;17.74;100.00;101375.66;5077932;28;20100;-71
2022/08/03 05:09:40;;;;;;;2.92;1.40;;;;;;;17.84;100.00;101373.56;5070776;28;20093;-72
2022/08/03 05:12:06;;;;;;;4.22;1.42;;;;;;;17.95;100.00;101386.44;5075737;28;20024;-71
2022/08/03 05:14:32;;;;;;;4.60;1.10;;;;;;;18.06;100.00;101385.97;5072174;28;20384;-71
2022/08/03 05:16:58;;;;;;;4.82;1.42;;;;;;;18.14;100.00;101386.88;5072478;28;21129;-71
2022/08/03 05:19:23;;;;;;;1.30;0.80;;;;;;;18.15;100.00;101384.00;5077487;28;20603;-72
2022/08/03 05:21:48;;;;;;;1.33;0.95;;;;;;;18.23;100.00;101385.78;5076078;28;20032;-70
2022/08/03 05:24:14;;;;;;;1.38;1.27;;;;;;;18.27;100.00;101382.53;5077464;28;20504;-73
2022/08/03 05:26:39;;;;;;;2.10;1.23;;;;;;;18.39;100.00;101380.19;5058772;28;20071;-71
2022/08/03 05:29:04;;;;;;;2.30;0.82;;;;;;;18.47;100.00;101377.41;5074384;28;20162;-72
2022/08/03 05:31:30;;;;;;;6.07;1.30;;;;;;;18.53;100.00;101374.97;5074725;28;20063;-71
2022/08/03 05:33:55;;;;;;;2.03;1.55;;;;;;;18.55;100.00;101372.94;5075910;28;20503;-72
2022/08/03 05:36:21;;;;;;;1.77;0.95;;;;;;;18.59;100.00;101374.22;5074423;28;20059;-70
2022/08/03 05:38:46;;;;;;;3.00;1.27;;;;;;;18.61;100.00;101380.22;5075778;28;20016;-72
2022/08/03 05:41:11;;;;;;;1.63;0.77;;;;;;;18.67;100.00;101377.59;5074660;28;20036;-70
2022/08/03 05:43:37;;;;;;;6.68;1.95;;;;;;;18.62;100.00;101376.53;5074033;28;20143;-70
2022/08/03 05:46:03;;;;;;;7.50;0.95;;;;;;;18.67;100.00;101372.25;5079115;28;20127;-71
2022/08/03 05:48:28;;;;;;;2.20;1.50;;;;;;;18.74;100.00;101377.66;5070947;28;20034;-72
2022/08/03 05:50:53;;;;;;;3.42;1.08;;;;;;;18.72;100.00;101377.03;5071636;28;20036;-72
2022/08/03 05:53:19;;;;;;;1.73;1.05;;;;;;;18.74;100.00;101371.50;5073639;28;20016;-71
2022/08/03 05:55:44;;;;;;;1.15;0.93;;;;;;;18.91;100.00;101375.59;5071925;28;20122;-71
2022/08/03 05:58:09;;;;;;;2.00;1.25;;;;;;;18.93;100.00;101375.41;5073825;28;20036;-72
2022/08/03 06:00:35;;;;;;;4.50;1.15;;;;;;;19.04;100.00;101372.22;5072369;28;20028;-71
2022/08/03 06:03:01;;;;;;;4.57;0.75;;;;;;;19.20;100.00;101366.56;5068138;28;20496;-72
2022/08/03 06:05:27;;;;;;;2.50;1.20;;;;;;;19.19;100.00;101364.09;5074608;28;20032;-71
2022/08/03 06:07:53;;;;;;;2.97;1.60;;;;;;;19.34;100.00;101367.50;5070095;28;20025;-71
2022/08/03 06:10:19;;;;;;;2.20;0.98;;;;;;;19.46;100.00;101375.81;5072585;28;20396;-71
2022/08/03 06:12:48;;;;;;;2.33;1.05;;;;;;;19.42;100.00;101363.84;5091890;28;20387;-71
2022/08/03 06:15:14;;;;;;;2.58;1.05;;;;;;;19.63;100.00;101371.81;5074082;28;20068;-71
2022/08/03 06:17:47;;;;;;;9.98;1.52;;;;;;;19.84;100.00;101378.16;5074155;28;20035;-71
2022/08/03 06:20:15;;;;;;;4.65;1.00;;;;;;;19.99;100.00;101383.34;5076214;28;20340;-71
2022/08/03 06:22:41;;;;;;;2.50;0.82;;;;;;;20.15;100.00;101383.00;5075511;28;20030;-71
2022/08/03 06:25:07;;;;;;;4.65;1.02;;;;;;;20.33;100.00;101393.19;5073421;28;20036;-71
2022/08/03 06:27:32;;;;;;;1.33;0.80;;;;;;;20.39;100.00;101375.47;5073031;28;20059;-71
2022/08/03 06:29:57;;;;;;;3.00;0.90;;;;;;;20.51;100.00;101363.97;5069942;28;20453;-71
2022/08/03 06:32:23;;;;;;;3.42;1.85;;;;;;;20.73;100.00;101383.41;5072162;28;20028;-71
2022/08/03 06:34:48;;;;;;;6.43;1.23;;;;;;;20.77;100.00;101383.00;5073675;28;20043;-71
2022/08/03 06:37:13;;;;;;;3.72;1.10;;;;;;;20.79;100.00;101381.75;5075038;28;20074;-73
2022/08/03 06:39:39;;;;;;;4.78;1.25;;;;;;;20.78;100.00;101376.63;5072236;28;20036;-71
2022/08/03 06:42:04;;;;;;;4.50;1.13;;;;;;;20.79;100.00;101370.19;5068237;28;20119;-71
2022/08/03 06:44:29;;;;;;;4.63;1.45;;;;;;;20.91;100.00;101374.75;5076031;28;20029;-71
2022/08/03 06:46:55;;;;;;;4.85;1.38;;;;;;;21.17;100.00;101373.13;5072423;28;20039;-71
2022/08/03 06:49:20;;;;;;;7.55;1.13;;;;;;;21.53;100.00;101366.47;5060247;28;20059;-72
2022/08/03 06:51:46;;;;;;;3.58;1.08;;;;;;;21.92;98.32;101364.72;5073944;28;20035;-72
2022/08/03 06:54:12;;;;;;;1.90;0.98;;;;;;;22.34;94.93;101375.91;5067594;28;20032;-71
2022/08/03 06:56:37;;;;;;;1.77;1.20;;;;;;;22.31;93.42;101374.47;5072233;28;20179;-71
2022/08/03 06:59:02;;;;;;;3.40;1.30;;;;;;;22.61;92.54;101386.53;5071592;28;20028;-71
2022/08/03 07:01:28;;;;;;;3.10;1.20;;;;;;;22.74;92.57;101383.75;5073464;28;20020;-71
2022/08/03 07:03:55;;;;;;;2.80;0.98;;;;;;;22.87;92.28;101393.59;5071669;28;20119;-72
2022/08/03 07:06:20;;;;;;;3.63;0.65;;;;;;;23.56;89.00;101397.16;5069733;28;20107;-71
2022/08/03 07:08:45;;;;;;;4.35;1.15;;;;;;;23.86;86.70;101391.88;5072078;28;20032;-71
2022/08/03 07:11:11;;;;;;;4.72;0.98;;;;;;;23.86;86.92;101385.66;5073323;28;20035;-72
2022/08/03 07:13:36;;;;;;;2.50;1.35;;;;;;;23.71;85.75;101381.44;5069226;28;20035;-72
2022/08/03 07:16:02;;;;;;;2.28;0.85;;;;;;;23.76;86.60;101392.41;5056844;28;20029;-72
2022/08/03 07:18:27;;;;;;;1.98;0.70;;;;;;;24.19;85.46;101396.03;5074245;28;20527;-72
2022/08/03 07:20:53;;;;;;;3.55;0.82;;;;;;;24.26;84.81;101401.34;5071607;28;20142;-71
2022/08/03 07:23:18;;;;;;;3.53;1.13;;;;;;;24.19;85.17;101390.66;5073727;28;20020;-71
2022/08/03 07:25:43;;;;;;;2.03;0.98;;;;;;;25.05;83.26;101394.81;5075404;28;20480;-71
2022/08/03 07:28:09;;;;;;;3.38;1.15;;;;;;;25.17;84.15;101402.94;5076935;28;20070;-71
2022/08/03 07:30:34;;;;;;;5.05;1.10;;;;;;;25.92;78.70;101406.00;5074236;28;20957;-71
2022/08/03 07:33:00;;;;;;;4.57;1.20;;;;;;;26.00;77.33;101416.41;5078114;28;20400;-71
2022/08/03 07:35:25;;;;;;;3.80;1.65;;;;;;;24.97;80.46;101403.25;5075077;28;20032;-71
2022/08/03 07:37:52;;;;;;;3.53;0.85;;;;;;;25.07;81.50;101401.88;5078400;28;20025;-71
2022/08/03 07:40:17;;;;;;;3.60;1.60;;;;;;;25.29;79.99;101399.44;5070001;28;20533;-71
2022/08/03 07:42:43;;;;;;;4.82;0.95;;;;;;;25.29;80.82;101394.03;5077934;28;20024;-71
2022/08/03 07:45:09;;;;;;;3.53;0.95;;;;;;;25.64;79.46;101402.94;5055192;28;20067;-71
2022/08/03 07:47:34;;;;;;;5.68;2.03;;;;;;;26.14;77.96;101401.56;5076261;28;20032;-71
2022/08/03 07:49:59;;;;;;;6.10;2.10;;;;;;;25.98;77.06;101392.31;5074376;28;20081;-71
2022/08/03 07:55:09;;;;;;;4.93;1.17;;;;;;;25.54;79.15;101393.78;5073362;28;20047;-71
2022/08/03 07:57:35;;;;;;;2.90;0.77;;;;;;;26.32;79.04;101387.00;5078462;28;20025;-71
2022/08/03 08:00:00;;;;;;;5.03;1.42;;;;;;;27.02;75.22;101395.81;5069551;28;20392;-71
2022/08/03 08:02:26;;;;;;;3.65;1.10;;;;;;;26.90;75.94;101398.63;5077313;28;20052;-71
2022/08/03 08:04:51;;;;;;;4.95;1.17;;;;;;;27.15;74.54;101405.50;5075137;28;20565;-71
2022/08/03 08:07:16;;;;;;;2.40;1.05;;;;;;;26.76;75.70;101400.84;5072225;28;20036;-71
2022/08/03 08:09:42;;;;;;;1.08;0.70;;;;;;;27.17;75.09;101409.59;5074693;28;20039;-71
2022/08/03 08:12:08;;;;;;;4.20;0.70;;;;;;;27.55;72.67;101410.75;5073608;28;20036;-71
2022/08/03 08:14:34;;;;;;;6.15;0.90;;;;;;;28.31;70.35;101407.38;5078008;28;20028;-72
2022/08/03 08:17:00;;;;;;;3.00;0.75;;;;;;;27.73;71.80;101415.06;5075519;28;20115;-71
2022/08/03 08:19:25;;;;;;;3.75;1.15;;;;;;;27.77;70.80;101413.50;5074953;28;20039;-71
2022/08/03 08:21:51;;;;;;;5.25;0.93;;;;;;;27.60;71.58;101418.13;5073347;28;20276;-71
2022/08/03 08:24:16;;;;;;;2.50;0.93;;;;;;;27.72;71.37;101416.16;5070484;28;20033;-71
2022/08/03 08:26:42;;;;;;;6.47;1.30;;;;;;;28.00;71.12;101400.75;5067613;28;20058;-71
2022/08/03 08:29:07;;;;;;;3.92;1.67;;;;;;;27.52;72.71;101410.41;5074814;28;20052;-71
2022/08/03 08:31:33;;;;;;;4.45;1.30;;;;;;;29.10;68.06;101405.97;5075073;28;20033;-71
2022/08/03 08:33:58;;;;;;;6.82;1.52;;;;;;;27.93;70.08;101421.84;5074784;28;20063;-71
2022/08/03 08:36:24;;;;;;;4.07;1.38;;;;;;;28.65;69.67;101410.72;5075689;28;20032;-71
2022/08/03 08:38:49;;;;;;;2.28;0.98;;;;;;;29.01;67.66;101421.91;5042077;28;20051;-71
2022/08/03 08:41:15;;;;;;;4.43;0.80;;;;;;;29.28;68.52;101423.75;5071074;28;20024;-71
2022/08/03 08:43:41;;;;;;;1.95;0.60;;;;;;;30.04;64.07;101423.34;5072589;28;20403;-71
2022/08/03 08:46:11;;;;;;;3.75;1.08;;;;;;;30.80;62.86;101412.91;5072907;28;20032;-72
2022/08/03 08:48:40;;;;;;;3.10;1.33;;;;;;;30.49;63.38;101427.31;5072628;28;20028;-72
2022/08/03 08:51:08;;;;;;;6.70;1.05;;;;;;;30.29;62.77;101419.94;5072404;28;20035;-72
2022/08/03 08:53:36;;;;;;;2.85;1.20;;;;;;;29.12;65.91;101415.47;5073197;28;20107;-72
2022/08/03 08:56:02;;;;;;;3.67;1.13;;;;;;;29.82;64.65;101425.44;5073650;28;20036;-73
2022/08/03 08:58:31;;;;;;;4.95;1.08;;;;;;;30.57;64.23;101425.13;5072715;28;20300;-72
2022/08/03 09:00:56;;;;;;;4.93;0.90;;;;;;;30.79;63.39;101422.97;5077953;28;20017;-72
2022/08/03 09:03:22;;;;;;;5.50;1.40;;;;;;;29.65;63.92;101425.59;5076745;28;20081;-72
2022/08/03 09:05:48;;;;;;;3.00;1.58;;;;;;;29.33;65.82;101426.50;5071544;28;20106;-72
2022/08/03 09:08:13;;;;;;;2.58;1.00;;;;;;;31.55;62.77;101424.88;5058082;28;20090;-72
2022/08/03 09:10:38;;;;;;;2.95;1.00;;;;;;;30.98;62.56;101430.66;5069559;28;20020;-72
2022/08/03 09:13:06;;;;;;;1.33;0.68;;;;;;;31.20;62.95;101433.88;5076690;28;20032;-72
2022/08/03 09:15:32;;;;;;;5.18;1.27;;;;;;;30.73;61.54;101430.34;5074762;28;20074;-72
2022/08/03 09:18:00;;;;;;;5.95;1.00;;;;;;;30.48;63.01;101422.94;5074040;28;20029;-72
2022/08/03 09:20:27;;;;;;;3.58;0.93;;;;;;;30.31;63.04;101409.59;5073352;28;20021;-72
2022/08/03 09:22:57;;;;;;;6.40;1.83;;;;;;;31.06;62.19;101425.47;5072137;28;20097;-72
2022/08/03 09:25:33;;;;;;;;;;;;;;;32.68;58.83;101426.25;5071272;28;20064;-72
2022/08/03 09:28:13;;;;;;;4.63;1.15;;;;;;;32.25;57.94;101426.78;5070167;28;20527;-72
2022/08/03 09:30:45;;;;;;;4.40;0.88;;;;;;;31.32;60.21;101418.06;5074938;28;20067;-72
2022/08/03 09:33:13;;;;;;;5.40;1.40;;;;;;;30.27;62.15;101426.69;5070251;28;20032;-72
2022/08/03 09:35:43;;;;;;;6.22;1.50;;;;;;;30.03;63.28;101416.28;5071760;28;20024;-74
2022/08/03 09:38:14;;;;;;;5.90;1.33;;;;;;;30.24;64.09;101422.59;5070587;28;20024;-72
2022/08/03 09:40:40;;;;;;;3.03;1.15;;;;;;;30.94;63.08;101414.00;5073722;28;20035;-72
2022/08/03 09:43:09;;;;;;;4.70;1.27;;;;;;;31.19;62.43;101421.38;5069432;28;20077;-72
2022/08/03 09:45:36;;;;;;;3.55;1.17;;;;;;;29.77;63.55;101420.81;5074577;28;20408;-72
2022/08/03 09:48:24;;;;;;;4.07;0.88;;;;;;;29.89;66.56;101418.66;5072739;28;20098;-72
2022/08/03 09:50:55;;;;;;;3.45;0.82;;;;;;;31.35;62.62;101406.59;5072350;28;20040;-72
2022/08/03 09:53:21;;;;;;;4.47;1.13;;;;;;;32.22;58.50;101405.47;5072520;28;20020;-72
2022/08/03 09:55:55;;;;;;;4.90;1.48;;;;;;;31.79;59.33;101407.84;5071248;28;20038;-72
2022/08/03 09:58:22;;;;;;;3.33;0.90;;;;;;;33.68;59.35;101411.09;5070395;28;20024;-72
2022/08/03 10:01:07;;;;;;;5.63;1.50;;;;;;;35.29;53.06;101416.63;5074939;28;20020;-72
2022/08/03 10:03:36;;;;;;;5.78;1.30;;;;;;;32.76;56.57;101420.97;5073047;28;20079;-73
2022/08/03 10:06:18;;;;;;;5.15;1.63;;;;;;;32.03;61.54;101416.22;5072183;28;20027;-72
2022/08/03 10:08:43;;;;;;;1.83;0.88;;;;;;;32.03;57.75;101415.41;5071924;28;20029;-72
2022/08/03 10:11:08;;;;;;;3.58;1.15;;;;;;;31.66;60.14;101409.28;5069906;28;20024;-72
2022/08/03 10:13:35;;;;;;;2.28;1.20;;;;;;;32.37;58.30;101419.03;5057486;28;20031;-72
2022/08/03 10:16:03;;;;;;;2.22;1.13;;;;;;;32.74;56.59;101414.97;5073457;28;20029;-72
2022/08/03 10:18:29;;;;;;;5.13;1.20;;;;;;;32.81;57.53;101419.31;5071632;28;20399;-72
2022/08/03 10:21:02;;;;;;;5.20;1.40;;;;;;;32.66;57.75;101414.78;5076267;28;20028;-72
2022/08/03 10:23:28;;;;;;;1.35;0.70;;;;;;;33.98;54.50;101414.53;5070477;28;20053;-72
2022/08/03 10:26:00;;;;;;;3.80;1.02;;;;;;;31.88;60.06;101408.91;5071926;28;20052;-72
2022/08/03 10:28:35;;;;;;;2.03;1.30;;;;;;;33.20;57.46;101403.66;5071466;28;20044;-72
2022/08/03 10:31:03;;;;;;;4.93;1.27;;;;;;;32.51;57.06;101399.28;5076370;28;20127;-72
2022/08/03 10:33:33;;;;;;;2.45;1.23;;;;;;;33.49;57.96;101405.53;5070368;28;20023;-72
2022/08/03 10:36:00;;;;;;;2.33;1.08;;;;;;;34.50;53.00;101407.25;5074865;28;20092;-72
2022/08/03 10:38:36;;;;;;;2.90;1.08;;;;;;;33.66;56.05;101409.75;5071572;28;20130;-72
2022/08/03 10:41:02;;;;;;;4.40;1.13;;;;;;;34.69;54.68;101401.75;5070096;28;20024;-72
2022/08/03 10:43:44;;;;;;;2.38;1.25;;;;;;;35.42;50.97;101410.34;5072954;28;20039;-72
2022/08/03 10:46:10;;;;;;;4.65;1.40;;;;;;;32.21;57.44;101403.03;5073665;28;20434;-72
2022/08/03 10:48:36;;;;;;;2.15;0.95;;;;;;;32.29;58.60;101410.63;5069485;28;20025;-72
2022/08/03 10:51:02;;;;;;;2.95;1.17;;;;;;;32.59;57.30;101402.25;5073169;28;20032;-72
2022/08/03 10:53:35;;;;;;;2.75;1.10;;;;;;;33.66;55.68;101398.81;5072748;28;20039;-72
2022/08/03 10:58:48;;;;;;;4.72;1.75;;;;;;;33.75;53.61;101397.03;5077269;28;20102;-72
2022/08/03 11:01:14;;;;;;;7.00;1.67;;;;;;;34.13;53.04;101391.66;5080656;28;20055;-72
2022/08/03 11:03:52;;;;;;;2.78;1.08;;;;;;;34.60;53.35;101398.03;5073862;28;20063;-72
2022/08/03 11:06:20;;;;;;;4.75;1.40;;;;;;;35.50;50.49;101395.91;5074490;28;20419;-72
2022/08/03 11:08:47;;;;;;;4.63;1.00;;;;;;;36.59;51.63;101398.72;5075883;28;20051;-72
2022/08/03 11:11:15;;;;;;;4.93;1.20;;;;;;;37.95;46.29;101396.41;5075475;28;20086;-72
2022/08/03 11:13:55;;;;;;;4.85;1.42;;;;;;;38.00;48.43;101390.75;5075108;28;20071;-72
2022/08/03 11:16:22;;;;;;;4.65;1.65;;;;;;;37.49;46.33;101391.44;5074389;28;20024;-72
2022/08/03 11:18:59;;;;;;;2.45;0.80;;;;;;;36.77;48.10;101388.66;5074164;28;20115;-72
2022/08/03 11:24:36;;;;;;;6.03;1.20;;;;;;;35.36;49.78;101398.63;5076632;28;20064;-72
2022/08/03 11:27:13;;;;;;;7.03;1.15;;;;;;;36.91;50.25;101387.78;5076621;28;20400;-72
2022/08/03 11:30:07;;;;;;;3.40;1.48;;;;;;;36.61;47.39;101390.22;5075608;28;20483;-72
2022/08/03 11:32:47;;;;;;;5.97;1.50;;;;;;;34.74;52.35;101392.63;5072225;28;20050;-72
2022/08/03 11:35:31;;;;;;;3.33;1.30;;;;;;;34.71;50.49;101385.00;5074642;28;20020;-72
2022/08/03 11:37:56;;;;;;;6.28;1.70;;;;;;;32.58;54.91;101383.44;5073351;28;20028;-72